createdAt,value
2023-04-30T00:02:16.450Z,99316.09
2023-04-30T00:04:46.420Z,99316.78
2023-04-30T00:07:14.919Z,99315.59
2023-04-30T00:09:43.527Z,99322.66
2023-04-30T00:12:11.994Z,99323.38
2023-04-30T00:14:40.344Z,99325.19
2023-04-30T00:17:08.756Z,99332.56
2023-04-30T00:19:37.229Z,99322.19
2023-04-30T00:22:07.152Z,99322.59
2023-04-30T00:24:35.674Z,99333.25
2023-04-30T00:27:04.056Z,99342.75
2023-04-30T00:29:32.377Z,99353.72
2023-04-30T00:32:00.832Z,99350.00
2023-04-30T00:34:29.158Z,99347.31
2023-04-30T00:36:57.520Z,99338.53
2023-04-30T00:39:27.318Z,99334.50
2023-04-30T00:41:55.747Z,99346.50
2023-04-30T00:44:24.150Z,99351.31
2023-04-30T00:46:52.528Z,99351.38
2023-04-30T00:49:21.150Z,99353.06
2023-04-30T00:51:49.736Z,99343.16
2023-04-30T00:54:19.237Z,99343.53
2023-04-30T00:56:49.329Z,99355.81
2023-04-30T00:59:18.420Z,99355.88
2023-04-30T01:01:46.928Z,99363.16
2023-04-30T01:04:15.295Z,99362.38
2023-04-30T01:06:43.860Z,99370.47
2023-04-30T01:09:12.411Z,99374.66
2023-04-30T01:11:57.744Z,99367.25
2023-04-30T01:14:32.129Z,99365.88
2023-04-30T01:17:07.648Z,99370.38
2023-04-30T01:19:42.989Z,99375.38
2023-04-30T01:22:22.129Z,99372.88
2023-04-30T01:25:16.419Z,99366.81
2023-04-30T01:28:04.005Z,99372.66
2023-04-30T01:30:33.669Z,99372.38
2023-04-30T01:33:02.368Z,99377.38
2023-04-30T01:35:56.927Z,99380.44
2023-04-30T01:38:46.350Z,99388.75
2023-04-30T01:41:29.298Z,99393.16
2023-04-30T01:44:15.484Z,99384.84
2023-04-30T01:46:52.749Z,99381.25
2023-04-30T01:49:31.600Z,99377.69
2023-04-30T01:52:16.260Z,99389.84
2023-04-30T01:54:50.452Z,99376.31
2023-04-30T01:57:30.541Z,99385.19
2023-04-30T02:00:00.589Z,99385.72
2023-04-30T02:02:29.009Z,99387.38
2023-04-30T02:04:57.401Z,99384.91
2023-04-30T02:07:40.494Z,99387.44
2023-04-30T02:10:11.990Z,99393.81
2023-04-30T02:12:40.673Z,99392.97
2023-04-30T02:15:12.258Z,99402.09
2023-04-30T02:17:40.830Z,99405.41
2023-04-30T02:20:10.578Z,99417.81
2023-04-30T02:22:39.218Z,99409.53
2023-04-30T02:25:08.557Z,99411.47
2023-04-30T02:27:36.982Z,99406.75
2023-04-30T02:30:06.856Z,99410.63
2023-04-30T02:32:36.744Z,99408.38
2023-04-30T02:35:05.909Z,99410.31
2023-04-30T02:37:34.203Z,99415.84
2023-04-30T02:40:02.554Z,99418.94
2023-04-30T02:42:31.042Z,99419.25
2023-04-30T02:44:59.444Z,99418.97
2023-04-30T02:47:27.830Z,99430.88
2023-04-30T02:49:57.497Z,99428.13
2023-04-30T02:52:27.156Z,99443.88
2023-04-30T02:54:55.587Z,99436.72
2023-04-30T02:57:23.847Z,99429.25
2023-04-30T02:59:52.702Z,99432.81
2023-04-30T03:02:23.664Z,99431.41
2023-04-30T03:04:52.423Z,99431.41
2023-04-30T03:07:22.148Z,99430.31
2023-04-30T03:09:50.662Z,99431.13
2023-04-30T03:12:18.970Z,99434.69
2023-04-30T03:14:47.289Z,99437.78
2023-04-30T03:17:16.086Z,99433.91
2023-04-30T03:19:44.445Z,99431.94
2023-04-30T03:22:12.894Z,99426.41
2023-04-30T03:24:42.567Z,99434.16
2023-04-30T03:27:11.288Z,99427.00
2023-04-30T03:29:39.653Z,99438.06
2023-04-30T03:32:07.972Z,99442.47
2023-04-30T03:34:36.401Z,99445.25
2023-04-30T03:37:04.800Z,99443.31
2023-04-30T03:39:33.175Z,99451.59
2023-04-30T03:42:03.830Z,99457.97
2023-04-30T03:44:32.196Z,99452.97
2023-04-30T03:47:00.513Z,99457.38
2023-04-30T03:49:28.829Z,99452.38
2023-04-30T03:51:57.208Z,99459.88
2023-04-30T03:54:25.590Z,99453.19
2023-04-30T03:56:54.077Z,99459.56
2023-04-30T03:59:23.967Z,99459.28
2023-04-30T04:01:52.406Z,99460.63
2023-04-30T04:04:20.767Z,99463.38
2023-04-30T04:06:49.128Z,99460.34
2023-04-30T04:09:17.448Z,99466.41
2023-04-30T04:11:45.823Z,99473.28
2023-04-30T04:14:14.146Z,99472.16
2023-04-30T04:16:43.950Z,99479.34
2023-04-30T04:19:13.387Z,99489.28
2023-04-30T04:21:41.742Z,99487.88
2023-04-30T04:24:10.556Z,99499.22
2023-04-30T04:26:39.143Z,99492.28
2023-04-30T04:29:08.853Z,99493.91
2023-04-30T04:31:38.549Z,99499.38
2023-04-30T04:34:08.514Z,99499.63
2023-04-30T04:36:36.963Z,99505.09
2023-04-30T04:39:05.674Z,99501.75
2023-04-30T04:41:35.956Z,99502.81
2023-04-30T04:44:04.656Z,99505.81
2023-04-30T04:46:33.494Z,99516.53
2023-04-30T04:49:02.095Z,99512.66
2023-04-30T04:51:32.288Z,99517.59
2023-04-30T04:54:00.784Z,99519.81
2023-04-30T04:56:29.158Z,99522.00
2023-04-30T04:58:57.572Z,99526.66
2023-04-30T05:01:26.078Z,99532.09
2023-04-30T05:03:54.924Z,99531.78
2023-04-30T05:06:23.451Z,99527.81
2023-04-30T05:08:53.235Z,99529.69
2023-04-30T05:11:22.351Z,99532.97
2023-04-30T05:13:50.703Z,99536.00
2023-04-30T05:16:19.109Z,99542.28
2023-04-30T05:18:47.592Z,99553.00
2023-04-30T05:21:16.174Z,99548.44
2023-04-30T05:23:45.918Z,99548.88
2023-04-30T05:26:15.752Z,99549.06
2023-04-30T05:28:44.181Z,99552.50
2023-04-30T05:31:12.604Z,99549.81
2023-04-30T05:33:41.157Z,99560.78
2023-04-30T05:36:09.624Z,99545.59
2023-04-30T05:38:37.994Z,99552.63
2023-04-30T05:41:06.672Z,99558.63
2023-04-30T05:43:36.437Z,99558.53
2023-04-30T05:46:04.835Z,99558.44
2023-04-30T05:48:33.212Z,99564.72
2023-04-30T05:51:01.640Z,99560.81
2023-04-30T05:53:30.001Z,99570.50
2023-04-30T05:55:58.391Z,99574.13
2023-04-30T05:58:27.244Z,99572.06
2023-04-30T06:00:57.062Z,99582.25
2023-04-30T06:03:25.350Z,99574.34
2023-04-30T06:05:53.683Z,99571.69
2023-04-30T06:08:22.024Z,99575.03
2023-04-30T06:10:51.814Z,99574.53
2023-04-30T06:13:20.423Z,99566.06
2023-04-30T06:15:48.908Z,99575.25
2023-04-30T06:18:18.745Z,99574.53
2023-04-30T06:20:47.112Z,99579.03
2023-04-30T06:23:15.509Z,99567.41
2023-04-30T06:25:43.922Z,99580.19
2023-04-30T06:28:12.207Z,99571.03
2023-04-30T06:30:41.641Z,99577.69
2023-04-30T06:33:09.961Z,99573.72
2023-04-30T06:35:39.737Z,99570.84
2023-04-30T06:38:08.117Z,99578.25
2023-04-30T06:40:36.804Z,99570.09
2023-04-30T06:43:05.145Z,99576.69
2023-04-30T06:45:33.621Z,99576.06
2023-04-30T06:48:01.988Z,99580.72
2023-04-30T06:50:30.513Z,99570.41
2023-04-30T06:53:00.628Z,99582.25
2023-04-30T06:55:29.136Z,99571.66
2023-04-30T06:57:58.049Z,99575.63
2023-04-30T07:00:26.607Z,99577.72
2023-04-30T07:02:55.275Z,99576.44
2023-04-30T07:05:23.687Z,99584.63
2023-04-30T07:07:52.442Z,99576.66
2023-04-30T07:10:22.452Z,99581.19
2023-04-30T07:12:50.902Z,99577.31
2023-04-30T07:15:19.372Z,99576.19
2023-04-30T07:17:47.754Z,99578.88
2023-04-30T07:20:16.341Z,99572.97
2023-04-30T07:22:46.211Z,99567.63
2023-04-30T07:25:14.786Z,99568.19
2023-04-30T07:27:45.034Z,99574.50
2023-04-30T07:30:14.009Z,99569.84
2023-04-30T07:32:42.797Z,99576.91
2023-04-30T07:35:11.783Z,99574.53
2023-04-30T07:37:41.272Z,99570.34
2023-04-30T07:40:15.429Z,99568.28
2023-04-30T07:42:47.316Z,99576.75
2023-04-30T07:45:15.930Z,99574.84
2023-04-30T07:47:44.556Z,99578.84
2023-04-30T07:50:14.894Z,99579.09
2023-04-30T07:52:43.694Z,99578.13
2023-04-30T07:55:12.139Z,99582.44
2023-04-30T07:57:40.466Z,99585.09
2023-04-30T08:00:11.473Z,99582.78
2023-04-30T08:02:39.921Z,99585.94
2023-04-30T08:05:09.414Z,99594.50
2023-04-30T08:07:37.757Z,99586.59
2023-04-30T08:10:07.731Z,99586.00
2023-04-30T08:12:38.122Z,99600.09
2023-04-30T08:15:09.877Z,99590.44
2023-04-30T08:17:38.538Z,99599.78
2023-04-30T08:20:09.649Z,99591.56
2023-04-30T08:22:37.999Z,99596.31
2023-04-30T08:25:07.841Z,99595.31
2023-04-30T08:27:36.119Z,99604.16
2023-04-30T08:30:04.828Z,99599.84
2023-04-30T08:32:37.006Z,99595.56
2023-04-30T08:35:06.375Z,99599.19
2023-04-30T08:37:35.140Z,99604.16
2023-04-30T08:40:03.503Z,99606.16
2023-04-30T08:42:36.934Z,99611.91
2023-04-30T08:45:06.464Z,99604.81
2023-04-30T08:47:36.985Z,99610.78
2023-04-30T08:50:06.204Z,99616.19
2023-04-30T08:52:37.695Z,99610.75
2023-04-30T08:55:11.269Z,99615.22
2023-04-30T08:57:39.730Z,99620.34
2023-04-30T09:00:10.440Z,99625.41
2023-04-30T09:02:43.945Z,99619.66
2023-04-30T09:05:14.753Z,99632.50
2023-04-30T09:08:01.094Z,99621.81
2023-04-30T09:10:35.087Z,99628.38
2023-04-30T09:13:05.932Z,99622.78
2023-04-30T09:15:35.829Z,99618.69
2023-04-30T09:18:15.569Z,99623.28
2023-04-30T09:20:58.543Z,99622.94
2023-04-30T09:23:27.153Z,99619.47
2023-04-30T09:25:56.575Z,99615.03
2023-04-30T09:28:27.375Z,99622.91
2023-04-30T09:30:59.326Z,99618.59
2023-04-30T09:33:30.251Z,99612.63
2023-04-30T09:35:58.733Z,99613.03
2023-04-30T09:38:29.717Z,99604.09
2023-04-30T09:41:00.439Z,99608.16
2023-04-30T09:43:29.174Z,99601.50
2023-04-30T09:46:00.644Z,99596.50
2023-04-30T09:48:30.528Z,99608.81
2023-04-30T09:50:59.080Z,99597.91
2023-04-30T09:53:28.096Z,99599.47
2023-04-30T09:55:59.447Z,99599.41
2023-04-30T09:58:30.395Z,99594.22
2023-04-30T10:01:00.937Z,99581.78
2023-04-30T10:03:32.702Z,99586.16
2023-04-30T10:06:01.659Z,99587.72
2023-04-30T10:08:33.183Z,99581.81
2023-04-30T10:11:05.859Z,99584.97
2023-04-30T10:13:44.224Z,99581.09
2023-04-30T10:16:25.332Z,99574.91
2023-04-30T10:18:59.221Z,99570.44
2023-04-30T10:21:29.186Z,99564.38
2023-04-30T10:23:58.983Z,99568.09
2023-04-30T10:26:28.154Z,99564.88
2023-04-30T10:29:01.162Z,99557.38
2023-04-30T10:31:30.823Z,99554.06
2023-04-30T10:34:13.101Z,99553.06
2023-04-30T10:36:47.087Z,99554.06
2023-04-30T10:39:16.065Z,99543.72
2023-04-30T10:41:49.108Z,99544.03
2023-04-30T10:44:23.212Z,99536.94
2023-04-30T10:46:59.714Z,99539.53
2023-04-30T10:49:29.686Z,99532.88
2023-04-30T10:52:01.485Z,99531.78
2023-04-30T10:54:32.581Z,99528.03
2023-04-30T10:57:15.217Z,99522.16
2023-04-30T10:59:54.890Z,99518.66
2023-04-30T11:02:23.482Z,99519.03
2023-04-30T11:05:20.657Z,99517.81
2023-04-30T11:07:50.866Z,99525.50
2023-04-30T11:10:23.907Z,99522.22
2023-04-30T11:12:54.156Z,99516.09
2023-04-30T11:15:26.175Z,99517.50
2023-04-30T11:17:59.613Z,99522.06
2023-04-30T11:20:30.188Z,99518.97
2023-04-30T11:23:19.583Z,99514.81
2023-04-30T11:25:57.794Z,99527.50
2023-04-30T11:28:27.989Z,99530.59
2023-04-30T11:30:58.266Z,99522.09
2023-04-30T11:33:28.541Z,99528.00
2023-04-30T11:36:00.228Z,99528.81
2023-04-30T11:38:31.632Z,99526.97
2023-04-30T11:41:00.573Z,99525.72
2023-04-30T11:43:31.304Z,99531.84
2023-04-30T11:46:08.674Z,99533.88
2023-04-30T11:48:39.070Z,99530.41
2023-04-30T11:51:16.879Z,99530.41
2023-04-30T11:53:47.391Z,99527.91
2023-04-30T11:56:15.750Z,99524.56
2023-04-30T11:58:44.112Z,99528.06
2023-04-30T12:01:12.645Z,99529.78
2023-04-30T12:03:45.631Z,99529.66
2023-04-30T12:06:24.375Z,99512.78
2023-04-30T12:08:55.375Z,99511.41
2023-04-30T12:11:25.384Z,99515.75
2023-04-30T12:13:55.920Z,99515.16
2023-04-30T12:16:26.553Z,99518.22
2023-04-30T12:18:55.584Z,99516.56
2023-04-30T12:21:25.477Z,99518.19
2023-04-30T12:23:54.462Z,99517.66
2023-04-30T12:26:23.377Z,99516.25
2023-04-30T12:28:54.178Z,99500.22
2023-04-30T12:31:22.565Z,99496.72
2023-04-30T12:33:57.518Z,99492.53
2023-04-30T12:36:33.852Z,99482.38
2023-04-30T12:39:09.581Z,99480.44
2023-04-30T12:41:46.219Z,99472.34
2023-04-30T12:44:19.504Z,99488.06
2023-04-30T12:46:48.945Z,99481.13
2023-04-30T12:49:28.190Z,99479.00
2023-04-30T12:52:07.593Z,99492.44
2023-04-30T12:54:39.083Z,99488.50
2023-04-30T12:57:10.180Z,99485.19
2023-04-30T12:59:40.481Z,99479.09
2023-04-30T13:02:11.269Z,99494.72
2023-04-30T13:04:40.470Z,99487.09
2023-04-30T13:07:10.883Z,99484.41
2023-04-30T13:09:39.826Z,99483.59
2023-04-30T13:12:08.489Z,99489.28
2023-04-30T13:14:36.997Z,99483.44
2023-04-30T13:17:07.335Z,99481.47
2023-04-30T13:19:35.886Z,99478.88
2023-04-30T13:22:04.246Z,99476.56
2023-04-30T13:24:34.250Z,99473.31
2023-04-30T13:27:04.184Z,99468.16
2023-04-30T13:29:32.905Z,99464.34
2023-04-30T13:32:01.236Z,99449.28
2023-04-30T13:34:29.582Z,99443.47
2023-04-30T13:36:57.957Z,99445.03
2023-04-30T13:39:26.315Z,99435.19
2023-04-30T13:41:56.076Z,99435.22
2023-04-30T13:44:24.548Z,99441.38
2023-04-30T13:46:53.063Z,99442.19
2023-04-30T13:49:21.431Z,99452.16
2023-04-30T13:51:49.890Z,99451.91
2023-04-30T13:54:18.239Z,99446.41
2023-04-30T13:56:46.582Z,99441.06
2023-04-30T13:59:17.152Z,99432.03
2023-04-30T14:01:45.589Z,99435.53
2023-04-30T14:04:14.153Z,99426.53
2023-04-30T14:06:43.370Z,99417.97
2023-04-30T14:09:11.884Z,99407.13
2023-04-30T14:11:40.905Z,99406.06
2023-04-30T14:14:09.737Z,99409.84
2023-04-30T14:16:39.551Z,99400.38
2023-04-30T14:19:07.936Z,99399.63
2023-04-30T14:21:36.482Z,99389.38
2023-04-30T14:24:05.074Z,99396.50
2023-04-30T14:26:33.416Z,99391.31
2023-04-30T14:29:01.786Z,99386.75
2023-04-30T14:31:30.300Z,99389.88
2023-04-30T14:34:00.136Z,99403.19
2023-04-30T14:36:29.114Z,99393.13
2023-04-30T14:38:57.486Z,99407.56
2023-04-30T14:41:25.907Z,99416.75
2023-04-30T14:43:54.235Z,99419.25
2023-04-30T14:46:22.739Z,99418.75
2023-04-30T14:48:51.215Z,99425.78
2023-04-30T14:51:20.908Z,99422.28
2023-04-30T14:53:49.354Z,99423.94
2023-04-30T14:56:17.958Z,99426.28
2023-04-30T14:58:46.305Z,99425.66
2023-04-30T15:01:15.664Z,99424.44
2023-04-30T15:03:44.156Z,99427.22
2023-04-30T15:06:12.914Z,99427.75
2023-04-30T15:08:42.707Z,99419.13
2023-04-30T15:11:13.224Z,99413.69
2023-04-30T15:13:41.625Z,99410.41
2023-04-30T15:16:10.295Z,99415.75
2023-04-30T15:18:39.203Z,99409.78
2023-04-30T15:21:07.696Z,99409.25
2023-04-30T15:23:36.166Z,99400.13
2023-04-30T15:26:06.028Z,99400.69
2023-04-30T15:28:34.549Z,99407.63
2023-04-30T15:31:04.110Z,99404.72
2023-04-30T15:33:32.513Z,99405.47
2023-04-30T15:36:00.996Z,99411.78
2023-04-30T15:38:29.528Z,99406.97
2023-04-30T15:40:57.948Z,99405.00
2023-04-30T15:43:27.722Z,99408.03
2023-04-30T15:45:56.108Z,99410.75
2023-04-30T15:48:24.386Z,99408.00
2023-04-30T15:50:52.789Z,99415.59
2023-04-30T15:53:21.132Z,99411.19
2023-04-30T15:55:50.709Z,99411.91
2023-04-30T15:58:19.086Z,99412.66
2023-04-30T16:00:48.926Z,99408.53
2023-04-30T16:03:17.468Z,99403.41
2023-04-30T16:05:45.982Z,99410.28
2023-04-30T16:08:15.096Z,99405.94
2023-04-30T16:10:43.517Z,99412.00
2023-04-30T16:13:11.989Z,99409.53
2023-04-30T16:15:40.294Z,99414.59
2023-04-30T16:18:10.401Z,99409.66
2023-04-30T16:20:40.518Z,99409.81
2023-04-30T16:23:09.063Z,99408.03
2023-04-30T16:25:37.534Z,99406.19
2023-04-30T16:28:06.360Z,99402.81
2023-04-30T16:30:35.217Z,99399.47
2023-04-30T16:33:03.580Z,99396.09
2023-04-30T16:35:34.051Z,99403.25
2023-04-30T16:38:02.613Z,99400.34
2023-04-30T16:40:31.349Z,99402.72
2023-04-30T16:43:00.713Z,99397.84
2023-04-30T16:45:30.418Z,99393.78
2023-04-30T16:47:59.196Z,99394.13
2023-04-30T16:50:28.772Z,99403.41
2023-04-30T16:52:59.292Z,99397.00
2023-04-30T16:55:28.409Z,99402.31
2023-04-30T16:57:56.863Z,99404.78
2023-04-30T17:00:25.193Z,99408.56
2023-04-30T17:02:54.045Z,99408.41
2023-04-30T17:05:22.744Z,99400.84
2023-04-30T17:07:51.133Z,99406.13
2023-04-30T17:10:21.821Z,99409.41
2023-04-30T17:12:50.361Z,99407.94
2023-04-30T17:15:20.789Z,99406.78
2023-04-30T17:17:49.669Z,99415.66
2023-04-30T17:20:18.292Z,99416.16
2023-04-30T17:22:47.494Z,99419.44
2023-04-30T17:25:16.278Z,99419.94
2023-04-30T17:27:47.657Z,99418.28
2023-04-30T17:30:16.378Z,99423.19
2023-04-30T17:32:45.915Z,99424.47
2023-04-30T17:35:16.024Z,99416.91
2023-04-30T17:37:44.587Z,99422.16
2023-04-30T17:40:13.646Z,99426.22
2023-04-30T17:42:42.004Z,99424.75
2023-04-30T17:45:13.674Z,99433.91
2023-04-30T17:47:42.361Z,99429.31
2023-04-30T17:50:12.107Z,99422.56
2023-04-30T17:52:41.355Z,99423.84
2023-04-30T17:55:11.081Z,99420.72
2023-04-30T17:57:39.941Z,99424.78
2023-04-30T18:00:12.230Z,99431.63
2023-04-30T18:02:42.275Z,99425.69
2023-04-30T18:05:12.218Z,99432.03
2023-04-30T18:07:41.639Z,99427.75
2023-04-30T18:10:11.276Z,99433.78
2023-04-30T18:12:40.087Z,99435.03
2023-04-30T18:15:09.641Z,99435.50
2023-04-30T18:17:39.830Z,99433.69
2023-04-30T18:20:12.025Z,99443.31
2023-04-30T18:22:43.550Z,99439.81
2023-04-30T18:25:14.514Z,99433.88
2023-04-30T18:27:42.878Z,99447.09
2023-04-30T18:30:13.280Z,99437.56
2023-04-30T18:32:44.685Z,99447.97
2023-04-30T18:35:13.967Z,99447.25
2023-04-30T18:37:42.401Z,99450.16
2023-04-30T18:40:11.989Z,99452.56
2023-04-30T18:42:40.812Z,99457.09
2023-04-30T18:45:11.948Z,99456.72
2023-04-30T18:47:40.906Z,99458.44
2023-04-30T18:50:17.193Z,99451.38
2023-04-30T18:52:46.099Z,99457.03
2023-04-30T18:55:15.075Z,99452.75
2023-04-30T18:57:43.887Z,99460.34
2023-04-30T19:00:15.084Z,99458.84
2023-04-30T19:02:44.452Z,99464.81
2023-04-30T19:05:18.011Z,99457.41
2023-04-30T19:07:48.124Z,99466.97
2023-04-30T19:10:19.002Z,99471.00
2023-04-30T19:12:48.577Z,99469.97
2023-04-30T19:15:17.949Z,99480.31
2023-04-30T19:17:47.774Z,99474.84
2023-04-30T19:20:18.293Z,99483.00
2023-04-30T19:22:50.313Z,99477.53
2023-04-30T19:25:19.132Z,99483.19
2023-04-30T19:27:49.099Z,99489.66
2023-04-30T19:30:19.489Z,99486.97
2023-04-30T19:32:48.514Z,99489.84
2023-04-30T19:35:19.272Z,99491.91
2023-04-30T19:37:48.742Z,99488.38
2023-04-30T19:40:18.455Z,99496.00
2023-04-30T19:42:48.210Z,99500.50
2023-04-30T19:45:18.231Z,99501.41
2023-04-30T19:47:49.655Z,99494.31
2023-04-30T19:50:23.300Z,99502.72
2023-04-30T19:52:51.642Z,99493.34
2023-04-30T19:55:20.785Z,99496.72
2023-04-30T19:57:50.175Z,99498.47
2023-04-30T20:00:18.981Z,99502.97
2023-04-30T20:02:48.363Z,99506.63
2023-04-30T20:05:18.243Z,99500.84
2023-04-30T20:07:53.319Z,99502.56
2023-04-30T20:10:22.150Z,99503.47
2023-04-30T20:12:54.393Z,99507.97
2023-04-30T20:15:26.587Z,99518.84
2023-04-30T20:17:56.634Z,99526.13
2023-04-30T20:20:26.112Z,99523.13
2023-04-30T20:23:00.922Z,99531.22
2023-04-30T20:25:31.430Z,99527.38
2023-04-30T20:28:07.773Z,99527.16
2023-04-30T20:30:36.551Z,99535.25
2023-04-30T20:33:06.224Z,99532.22
2023-04-30T20:35:35.722Z,99525.66
2023-04-30T20:38:06.705Z,99540.13
2023-04-30T20:40:35.909Z,99539.03
2023-04-30T20:43:05.262Z,99541.59
2023-04-30T20:45:33.649Z,99544.13
2023-04-30T20:48:02.104Z,99541.97
2023-04-30T20:50:30.697Z,99538.13
2023-04-30T20:52:59.509Z,99544.28
2023-04-30T20:55:29.871Z,99547.94
2023-04-30T20:57:58.247Z,99554.56
2023-04-30T21:00:27.809Z,99555.16
2023-04-30T21:02:56.482Z,99556.59
2023-04-30T21:05:25.071Z,99557.19
2023-04-30T21:07:53.663Z,99553.06
2023-04-30T21:10:22.115Z,99556.09
2023-04-30T21:12:52.109Z,99550.84
2023-04-30T21:15:20.591Z,99558.31
2023-04-30T21:17:49.346Z,99563.84
2023-04-30T21:20:18.058Z,99562.22
2023-04-30T21:22:47.507Z,99562.53
2023-04-30T21:25:16.084Z,99564.72
2023-04-30T21:27:44.417Z,99566.69
2023-04-30T21:30:15.275Z,99566.97
2023-04-30T21:32:47.146Z,99567.28
2023-04-30T21:35:15.866Z,99566.44
2023-04-30T21:37:44.521Z,99571.16
2023-04-30T21:40:13.599Z,99559.84
2023-04-30T21:42:41.992Z,99562.63
2023-04-30T21:45:11.107Z,99562.91
2023-04-30T21:47:40.825Z,99561.25
2023-04-30T21:50:11.615Z,99559.06
2023-04-30T21:52:40.011Z,99570.44
2023-04-30T21:55:10.197Z,99566.31
2023-04-30T21:57:38.602Z,99561.09
2023-04-30T22:00:14.347Z,99565.25
2023-04-30T22:02:44.311Z,99566.66
2023-04-30T22:05:13.334Z,99562.22
2023-04-30T22:07:41.847Z,99567.25
2023-04-30T22:10:10.959Z,99566.72
2023-04-30T22:12:39.986Z,99568.13
2023-04-30T22:15:10.203Z,99567.59
2023-04-30T22:17:38.643Z,99570.94
2023-04-30T22:20:10.957Z,99566.78
2023-04-30T22:22:39.485Z,99579.00
2023-04-30T22:25:09.987Z,99571.28
2023-04-30T22:27:38.456Z,99569.09
2023-04-30T22:30:08.822Z,99569.97
2023-04-30T22:32:37.299Z,99563.06
2023-04-30T22:35:06.894Z,99569.19
2023-04-30T22:37:38.680Z,99568.13
2023-04-30T22:40:08.947Z,99565.09
2023-04-30T22:42:37.559Z,99569.25
2023-04-30T22:45:07.560Z,99561.00
2023-04-30T22:47:36.355Z,99567.97
2023-04-30T22:50:06.935Z,99566.88
2023-04-30T22:52:36.840Z,99567.47
2023-04-30T22:55:06.720Z,99569.97
2023-04-30T22:57:35.216Z,99572.50
2023-04-30T23:00:04.139Z,99580.53
2023-04-30T23:02:32.544Z,99571.13
2023-04-30T23:05:00.873Z,99567.00
2023-04-30T23:07:29.225Z,99570.63
2023-04-30T23:09:59.201Z,99575.06
2023-04-30T23:12:28.289Z,99570.94
2023-04-30T23:14:57.048Z,99578.97
2023-04-30T23:17:26.925Z,99576.78
2023-04-30T23:19:55.661Z,99573.50
2023-04-30T23:22:24.380Z,99574.88
2023-04-30T23:24:53.121Z,99578.22
2023-04-30T23:27:23.039Z,99574.91
2023-04-30T23:29:51.707Z,99582.66
2023-04-30T23:32:20.210Z,99580.16
2023-04-30T23:34:48.626Z,99577.16
2023-04-30T23:37:17.046Z,99574.69
2023-04-30T23:39:45.394Z,99572.50
2023-04-30T23:42:13.783Z,99575.56
2023-04-30T23:44:43.766Z,99574.97
2023-04-30T23:47:12.502Z,99568.91
2023-04-30T23:49:40.899Z,99571.16
2023-04-30T23:52:09.321Z,99573.38
2023-04-30T23:54:37.698Z,99565.94
2023-04-30T23:57:06.220Z,99563.47
2023-04-30T23:59:34.552Z,99563.19
